sensor_id;sensor_type;location;lat;lon;timestamp;P1;durP1;ratioP1;P2;durP2;ratioP2
28547;SDS011;15750;49.600;8.746;2022-09-11T00:02:07;4.68;;;2.35;;
28547;SDS011;15750;49.600;8.746;2022-09-11T00:04:54;2.30;;;2.20;;
28547;SDS011;15750;49.600;8.746;2022-09-11T00:07:41;2.42;;;2.22;;
28547;SDS011;15750;49.600;8.746;2022-09-11T00:10:29;4.07;;;2.58;;
28547;SDS011;15750;49.600;8.746;2022-09-11T00:13:21;4.15;;;2.05;;
28547;SDS011;15750;49.600;8.746;2022-09-11T00:16:18;2.92;;;1.98;;
28547;SDS011;15750;49.600;8.746;2022-09-11T00:19:07;2.65;;;2.20;;
28547;SDS011;15750;49.600;8.746;2022-09-11T00:21:58;2.22;;;2.10;;
28547;SDS011;15750;49.600;8.746;2022-09-11T00:24:45;2.40;;;2.20;;
28547;SDS011;15750;49.600;8.746;2022-09-11T00:27:35;2.15;;;1.95;;
28547;SDS011;15750;49.600;8.746;2022-09-11T00:30:22;2.55;;;2.25;;
28547;SDS011;15750;49.600;8.746;2022-09-11T00:33:09;2.92;;;2.30;;
28547;SDS011;15750;49.600;8.746;2022-09-11T00:35:57;3.85;;;2.30;;
28547;SDS011;15750;49.600;8.746;2022-09-11T00:38:48;2.65;;;2.45;;
28547;SDS011;15750;49.600;8.746;2022-09-11T00:41:37;2.60;;;2.40;;
28547;SDS011;15750;49.600;8.746;2022-09-11T00:47:50;2.90;;;2.22;;
28547;SDS011;15750;49.600;8.746;2022-09-11T00:50:40;3.50;;;2.40;;
28547;SDS011;15750;49.600;8.746;2022-09-11T00:53:29;2.15;;;2.03;;
28547;SDS011;15750;49.600;8.746;2022-09-11T00:56:21;2.90;;;2.13;;
28547;SDS011;15750;49.600;8.746;2022-09-11T00:59:13;2.08;;;1.98;;
28547;SDS011;15750;49.600;8.746;2022-09-11T01:02:02;2.90;;;2.60;;
28547;SDS011;15750;49.600;8.746;2022-09-11T01:04:52;4.00;;;1.88;;
28547;SDS011;15750;49.600;8.746;2022-09-11T01:07:39;2.33;;;2.13;;
28547;SDS011;15750;49.600;8.746;2022-09-11T01:10:30;1.83;;;1.73;;
28547;SDS011;15750;49.600;8.746;2022-09-11T01:13:29;4.20;;;2.05;;
28547;SDS011;15750;49.600;8.746;2022-09-11T01:16:23;1.75;;;1.65;;
28547;SDS011;15750;49.600;8.746;2022-09-11T01:19:29;1.88;;;1.77;;
28547;SDS011;15750;49.600;8.746;2022-09-11T01:22:40;2.65;;;2.10;;
28547;SDS011;15750;49.600;8.746;2022-09-11T01:25:59;3.05;;;2.22;;
28547;SDS011;15750;49.600;8.746;2022-09-11T01:29:06;2.70;;;2.50;;
28547;SDS011;15750;49.600;8.746;2022-09-11T01:32:03;1.90;;;1.80;;
28547;SDS011;15750;49.600;8.746;2022-09-11T01:34:57;2.25;;;2.05;;
28547;SDS011;15750;49.600;8.746;2022-09-11T01:37:51;1.90;;;1.80;;
28547;SDS011;15750;49.600;8.746;2022-09-11T01:40:44;1.75;;;1.65;;
28547;SDS011;15750;49.600;8.746;2022-09-11T01:43:39;2.40;;;2.20;;
28547;SDS011;15750;49.600;8.746;2022-09-11T01:46:33;3.05;;;1.80;;
28547;SDS011;15750;49.600;8.746;2022-09-11T01:49:26;2.05;;;1.95;;
28547;SDS011;15750;49.600;8.746;2022-09-11T01:52:21;3.28;;;2.00;;
28547;SDS011;15750;49.600;8.746;2022-09-11T01:55:14;2.47;;;2.20;;
28547;SDS011;15750;49.600;8.746;2022-09-11T01:58:06;2.30;;;2.10;;
28547;SDS011;15750;49.600;8.746;2022-09-11T02:01:01;2.00;;;1.90;;
28547;SDS011;15750;49.600;8.746;2022-09-11T02:03:57;2.95;;;2.17;;
28547;SDS011;15750;49.600;8.746;2022-09-11T02:06:54;2.00;;;1.88;;
28547;SDS011;15750;49.600;8.746;2022-09-11T02:09:50;2.55;;;1.85;;
28547;SDS011;15750;49.600;8.746;2022-09-11T02:12:45;2.03;;;1.92;;
28547;SDS011;15750;49.600;8.746;2022-09-11T02:15:39;4.63;;;2.33;;
28547;SDS011;15750;49.600;8.746;2022-09-11T02:18:35;2.22;;;2.13;;
28547;SDS011;15750;49.600;8.746;2022-09-11T02:21:29;4.68;;;2.25;;
28547;SDS011;15750;49.600;8.746;2022-09-11T02:24:18;2.78;;;2.30;;
28547;SDS011;15750;49.600;8.746;2022-09-11T02:27:09;2.60;;;2.40;;
28547;SDS011;15750;49.600;8.746;2022-09-11T02:30:01;2.83;;;2.63;;
28547;SDS011;15750;49.600;8.746;2022-09-11T02:32:53;2.75;;;2.55;;
28547;SDS011;15750;49.600;8.746;2022-09-11T02:35:42;2.90;;;2.70;;
28547;SDS011;15750;49.600;8.746;2022-09-11T02:38:38;2.65;;;2.45;;
28547;SDS011;15750;49.600;8.746;2022-09-11T02:41:34;3.58;;;3.00;;
28547;SDS011;15750;49.600;8.746;2022-09-11T02:44:36;3.20;;;2.30;;
28547;SDS011;15750;49.600;8.746;2022-09-11T02:47:34;2.30;;;2.20;;
28547;SDS011;15750;49.600;8.746;2022-09-11T02:50:31;2.78;;;2.58;;
28547;SDS011;15750;49.600;8.746;2022-09-11T02:53:27;2.75;;;2.55;;
28547;SDS011;15750;49.600;8.746;2022-09-11T02:56:25;3.17;;;2.97;;
28547;SDS011;15750;49.600;8.746;2022-09-11T02:59:22;3.10;;;2.80;;
28547;SDS011;15750;49.600;8.746;2022-09-11T03:02:14;3.55;;;2.67;;
28547;SDS011;15750;49.600;8.746;2022-09-11T03:05:06;3.22;;;2.70;;
28547;SDS011;15750;49.600;8.746;2022-09-11T03:07:57;2.30;;;2.20;;
28547;SDS011;15750;49.600;8.746;2022-09-11T03:10:44;3.63;;;2.50;;
28547;SDS011;15750;49.600;8.746;2022-09-11T03:13:35;5.20;;;2.83;;
28547;SDS011;15750;49.600;8.746;2022-09-11T03:16:24;2.97;;;2.78;;
28547;SDS011;15750;49.600;8.746;2022-09-11T03:19:11;3.38;;;3.08;;
28547;SDS011;15750;49.600;8.746;2022-09-11T03:21:58;3.13;;;2.80;;
28547;SDS011;15750;49.600;8.746;2022-09-11T03:24:46;2.97;;;2.67;;
28547;SDS011;15750;49.600;8.746;2022-09-11T03:27:34;3.42;;;2.70;;
28547;SDS011;15750;49.600;8.746;2022-09-11T03:30:26;3.63;;;2.63;;
28547;SDS011;15750;49.600;8.746;2022-09-11T03:33:14;2.78;;;2.58;;
28547;SDS011;15750;49.600;8.746;2022-09-11T03:36:02;3.10;;;2.90;;
28547;SDS011;15750;49.600;8.746;2022-09-11T03:38:50;4.15;;;2.78;;
28547;SDS011;15750;49.600;8.746;2022-09-11T03:41:39;2.90;;;2.70;;
28547;SDS011;15750;49.600;8.746;2022-09-11T03:44:26;3.25;;;3.05;;
28547;SDS011;15750;49.600;8.746;2022-09-11T03:47:15;7.35;;;2.80;;
28547;SDS011;15750;49.600;8.746;2022-09-11T03:50:04;3.80;;;2.85;;
28547;SDS011;15750;49.600;8.746;2022-09-11T03:52:53;3.83;;;3.53;;
28547;SDS011;15750;49.600;8.746;2022-09-11T03:55:40;2.70;;;2.50;;
28547;SDS011;15750;49.600;8.746;2022-09-11T03:58:27;2.50;;;2.30;;
28547;SDS011;15750;49.600;8.746;2022-09-11T04:01:15;4.28;;;2.75;;
28547;SDS011;15750;49.600;8.746;2022-09-11T04:04:06;2.55;;;2.35;;
28547;SDS011;15750;49.600;8.746;2022-09-11T04:06:57;3.38;;;2.97;;
28547;SDS011;15750;49.600;8.746;2022-09-11T04:09:45;3.75;;;2.88;;
28547;SDS011;15750;49.600;8.746;2022-09-11T04:12:33;3.20;;;2.90;;
28547;SDS011;15750;49.600;8.746;2022-09-11T04:15:20;3.25;;;3.00;;
28547;SDS011;15750;49.600;8.746;2022-09-11T04:18:08;4.80;;;3.10;;
28547;SDS011;15750;49.600;8.746;2022-09-11T04:20:58;3.60;;;3.30;;
28547;SDS011;15750;49.600;8.746;2022-09-11T04:23:49;3.83;;;3.53;;
28547;SDS011;15750;49.600;8.746;2022-09-11T04:26:41;3.72;;;3.42;;
28547;SDS011;15750;49.600;8.746;2022-09-11T04:29:54;3.97;;;3.67;;
28547;SDS011;15750;49.600;8.746;2022-09-11T04:32:41;3.65;;;3.35;;
28547;SDS011;15750;49.600;8.746;2022-09-11T04:35:30;4.13;;;3.83;;
28547;SDS011;15750;49.600;8.746;2022-09-11T04:38:20;6.90;;;4.50;;
28547;SDS011;15750;49.600;8.746;2022-09-11T04:41:08;4.47;;;4.07;;
28547;SDS011;15750;49.600;8.746;2022-09-11T04:43:56;3.85;;;3.58;;
28547;SDS011;15750;49.600;8.746;2022-09-11T04:46:51;3.85;;;3.40;;
28547;SDS011;15750;49.600;8.746;2022-09-11T04:49:40;4.25;;;3.92;;
28547;SDS011;15750;49.600;8.746;2022-09-11T04:52:28;4.18;;;3.85;;
28547;SDS011;15750;49.600;8.746;2022-09-11T04:55:17;3.50;;;3.20;;
28547;SDS011;15750;49.600;8.746;2022-09-11T04:58:05;4.70;;;4.07;;
28547;SDS011;15750;49.600;8.746;2022-09-11T05:00:54;3.60;;;3.30;;
28547;SDS011;15750;49.600;8.746;2022-09-11T05:03:42;3.90;;;3.60;;
28547;SDS011;15750;49.600;8.746;2022-09-11T05:06:29;5.68;;;4.20;;
28547;SDS011;15750;49.600;8.746;2022-09-11T05:09:20;3.45;;;3.25;;
28547;SDS011;15750;49.600;8.746;2022-09-11T05:12:08;3.85;;;3.55;;
28547;SDS011;15750;49.600;8.746;2022-09-11T05:14:56;4.13;;;3.83;;
28547;SDS011;15750;49.600;8.746;2022-09-11T05:17:43;4.30;;;4.00;;
28547;SDS011;15750;49.600;8.746;2022-09-11T05:20:36;3.63;;;3.42;;
28547;SDS011;15750;49.600;8.746;2022-09-11T05:23:26;3.50;;;3.20;;
28547;SDS011;15750;49.600;8.746;2022-09-11T05:26:14;5.03;;;4.50;;
28547;SDS011;15750;49.600;8.746;2022-09-11T05:29:05;4.78;;;4.38;;
28547;SDS011;15750;49.600;8.746;2022-09-11T05:32:00;5.53;;;3.15;;
28547;SDS011;15750;49.600;8.746;2022-09-11T05:34:48;4.18;;;3.88;;
28547;SDS011;15750;49.600;8.746;2022-09-11T05:37:37;4.35;;;4.05;;
28547;SDS011;15750;49.600;8.746;2022-09-11T05:40:26;6.32;;;5.82;;
28547;SDS011;15750;49.600;8.746;2022-09-11T05:43:15;6.32;;;5.72;;
28547;SDS011;15750;49.600;8.746;2022-09-11T05:46:09;5.63;;;5.20;;
28547;SDS011;15750;49.600;8.746;2022-09-11T05:48:59;5.50;;;4.97;;
28547;SDS011;15750;49.600;8.746;2022-09-11T05:51:46;5.05;;;4.65;;
28547;SDS011;15750;49.600;8.746;2022-09-11T05:54:33;4.72;;;4.40;;
28547;SDS011;15750;49.600;8.746;2022-09-11T05:57:22;5.28;;;4.85;;
28547;SDS011;15750;49.600;8.746;2022-09-11T06:00:10;5.72;;;4.13;;
28547;SDS011;15750;49.600;8.746;2022-09-11T06:03:08;5.22;;;4.82;;
28547;SDS011;15750;49.600;8.746;2022-09-11T06:06:00;5.05;;;4.18;;
28547;SDS011;15750;49.600;8.746;2022-09-11T06:08:49;6.43;;;4.65;;
28547;SDS011;15750;49.600;8.746;2022-09-11T06:11:37;5.90;;;5.50;;
28547;SDS011;15750;49.600;8.746;2022-09-11T06:14:25;5.32;;;4.95;;
28547;SDS011;15750;49.600;8.746;2022-09-11T06:17:12;5.45;;;5.05;;
28547;SDS011;15750;49.600;8.746;2022-09-11T06:20:01;4.43;;;4.13;;
28547;SDS011;15750;49.600;8.746;2022-09-11T06:22:49;4.95;;;4.63;;
28547;SDS011;15750;49.600;8.746;2022-09-11T06:25:36;5.45;;;5.05;;
28547;SDS011;15750;49.600;8.746;2022-09-11T06:28:24;5.82;;;5.32;;
28547;SDS011;15750;49.600;8.746;2022-09-11T06:31:12;4.47;;;4.18;;
28547;SDS011;15750;49.600;8.746;2022-09-11T06:34:03;4.93;;;4.53;;
28547;SDS011;15750;49.600;8.746;2022-09-11T06:36:51;5.40;;;4.82;;
28547;SDS011;15750;49.600;8.746;2022-09-11T06:39:39;5.40;;;5.00;;
28547;SDS011;15750;49.600;8.746;2022-09-11T06:42:31;5.57;;;5.18;;
28547;SDS011;15750;49.600;8.746;2022-09-11T06:45:19;5.57;;;5.18;;
28547;SDS011;15750;49.600;8.746;2022-09-11T06:48:06;4.22;;;3.92;;
28547;SDS011;15750;49.600;8.746;2022-09-11T06:50:56;4.53;;;4.20;;
28547;SDS011;15750;49.600;8.746;2022-09-11T06:53:53;4.40;;;4.07;;
28547;SDS011;15750;49.600;8.746;2022-09-11T06:56:44;4.70;;;4.30;;
28547;SDS011;15750;49.600;8.746;2022-09-11T06:59:33;5.65;;;5.03;;
28547;SDS011;15750;49.600;8.746;2022-09-11T07:02:20;5.00;;;4.50;;
28547;SDS011;15750;49.600;8.746;2022-09-11T07:05:07;7.07;;;5.47;;
28547;SDS011;15750;49.600;8.746;2022-09-11T07:07:56;6.55;;;5.65;;
28547;SDS011;15750;49.600;8.746;2022-09-11T07:10:49;5.20;;;4.70;;
28547;SDS011;15750;49.600;8.746;2022-09-11T07:13:37;5.30;;;4.85;;
28547;SDS011;15750;49.600;8.746;2022-09-11T07:16:25;5.68;;;5.13;;
28547;SDS011;15750;49.600;8.746;2022-09-11T07:19:13;5.07;;;4.68;;
28547;SDS011;15750;49.600;8.746;2022-09-11T07:22:02;5.63;;;5.18;;
28547;SDS011;15750;49.600;8.746;2022-09-11T07:24:50;4.50;;;4.15;;
28547;SDS011;15750;49.600;8.746;2022-09-11T07:27:40;4.57;;;4.28;;
28547;SDS011;15750;49.600;8.746;2022-09-11T07:30:28;5.18;;;4.78;;
28547;SDS011;15750;49.600;8.746;2022-09-11T07:33:17;6.32;;;5.45;;
28547;SDS011;15750;49.600;8.746;2022-09-11T07:36:07;5.68;;;5.18;;
28547;SDS011;15750;49.600;8.746;2022-09-11T07:38:59;5.25;;;4.75;;
28547;SDS011;15750;49.600;8.746;2022-09-11T07:42:01;4.55;;;4.25;;
28547;SDS011;15750;49.600;8.746;2022-09-11T07:44:52;6.22;;;5.72;;
28547;SDS011;15750;49.600;8.746;2022-09-11T07:47:39;5.95;;;5.45;;
28547;SDS011;15750;49.600;8.746;2022-09-11T07:50:27;6.32;;;5.82;;
28547;SDS011;15750;49.600;8.746;2022-09-11T07:53:14;6.15;;;5.65;;
28547;SDS011;15750;49.600;8.746;2022-09-11T07:56:03;6.22;;;5.72;;
28547;SDS011;15750;49.600;8.746;2022-09-11T07:58:53;6.35;;;5.75;;
28547;SDS011;15750;49.600;8.746;2022-09-11T08:01:43;7.15;;;6.43;;
28547;SDS011;15750;49.600;8.746;2022-09-11T08:04:32;6.10;;;5.35;;
28547;SDS011;15750;49.600;8.746;2022-09-11T08:07:20;5.85;;;5.35;;
28547;SDS011;15750;49.600;8.746;2022-09-11T08:10:08;4.78;;;4.38;;
28547;SDS011;15750;49.600;8.746;2022-09-11T08:13:11;7.20;;;6.60;;
28547;SDS011;15750;49.600;8.746;2022-09-11T08:16:02;6.63;;;6.03;;
28547;SDS011;15750;49.600;8.746;2022-09-11T08:18:51;6.57;;;5.97;;
28547;SDS011;15750;49.600;8.746;2022-09-11T08:21:40;6.50;;;6.00;;
28547;SDS011;15750;49.600;8.746;2022-09-11T08:24:28;5.07;;;4.68;;
28547;SDS011;15750;49.600;8.746;2022-09-11T08:27:17;7.53;;;6.90;;
28547;SDS011;15750;49.600;8.746;2022-09-11T08:30:05;6.70;;;6.20;;
28547;SDS011;15750;49.600;8.746;2022-09-11T08:32:54;7.50;;;6.80;;
28547;SDS011;15750;49.600;8.746;2022-09-11T08:35:43;6.53;;;5.90;;
28547;SDS011;15750;49.600;8.746;2022-09-11T08:38:32;7.82;;;7.22;;
28547;SDS011;15750;49.600;8.746;2022-09-11T08:41:27;7.82;;;7.13;;
28547;SDS011;15750;49.600;8.746;2022-09-11T08:44:26;8.25;;;7.55;;
28547;SDS011;15750;49.600;8.746;2022-09-11T08:47:32;8.18;;;7.35;;
28547;SDS011;15750;49.600;8.746;2022-09-11T08:50:23;9.73;;;8.93;;
28547;SDS011;15750;49.600;8.746;2022-09-11T08:53:16;8.00;;;7.32;;
28547;SDS011;15750;49.600;8.746;2022-09-11T08:56:06;7.80;;;7.15;;
28547;SDS011;15750;49.600;8.746;2022-09-11T08:59:03;6.65;;;5.88;;
28547;SDS011;15750;49.600;8.746;2022-09-11T09:02:06;7.40;;;6.80;;
28547;SDS011;15750;49.600;8.746;2022-09-11T09:05:12;6.55;;;6.05;;
28547;SDS011;15750;49.600;8.746;2022-09-11T09:08:10;9.98;;;9.07;;
28547;SDS011;15750;49.600;8.746;2022-09-11T09:11:12;8.82;;;8.00;;
28547;SDS011;15750;49.600;8.746;2022-09-11T09:14:12;11.57;;;10.48;;
28547;SDS011;15750;49.600;8.746;2022-09-11T09:17:20;6.82;;;6.30;;
28547;SDS011;15750;49.600;8.746;2022-09-11T09:20:12;7.05;;;6.50;;
28547;SDS011;15750;49.600;8.746;2022-09-11T09:23:11;6.90;;;6.20;;
28547;SDS011;15750;49.600;8.746;2022-09-11T09:26:07;5.97;;;5.47;;
28547;SDS011;15750;49.600;8.746;2022-09-11T09:29:03;8.93;;;8.07;;
28547;SDS011;15750;49.600;8.746;2022-09-11T09:31:56;6.63;;;6.13;;
28547;SDS011;15750;49.600;8.746;2022-09-11T09:34:51;11.35;;;10.25;;
28547;SDS011;15750;49.600;8.746;2022-09-11T09:37:43;11.57;;;10.57;;
28547;SDS011;15750;49.600;8.746;2022-09-11T09:40:32;6.97;;;6.45;;
28547;SDS011;15750;49.600;8.746;2022-09-11T09:43:25;6.40;;;5.90;;
28547;SDS011;15750;49.600;8.746;2022-09-11T09:46:22;6.60;;;6.07;;
28547;SDS011;15750;49.600;8.746;2022-09-11T09:49:21;10.55;;;9.48;;
28547;SDS011;15750;49.600;8.746;2022-09-11T09:52:16;8.18;;;7.47;;
28547;SDS011;15750;49.600;8.746;2022-09-11T09:55:12;8.00;;;7.28;;
28547;SDS011;15750;49.600;8.746;2022-09-11T09:58:02;8.65;;;7.95;;
28547;SDS011;15750;49.600;8.746;2022-09-11T10:00:51;10.25;;;9.35;;
28547;SDS011;15750;49.600;8.746;2022-09-11T10:03:38;9.30;;;8.43;;
28547;SDS011;15750;49.600;8.746;2022-09-11T10:06:26;7.88;;;7.18;;
28547;SDS011;15750;49.600;8.746;2022-09-11T10:12:19;7.75;;;6.95;;
28547;SDS011;15750;49.600;8.746;2022-09-11T10:15:16;8.65;;;7.95;;
28547;SDS011;15750;49.600;8.746;2022-09-11T10:21:23;8.55;;;7.85;;
28547;SDS011;15750;49.600;8.746;2022-09-11T10:24:20;6.80;;;6.30;;
28547;SDS011;15750;49.600;8.746;2022-09-11T10:27:10;8.07;;;7.38;;
28547;SDS011;15750;49.600;8.746;2022-09-11T10:30:04;7.60;;;6.90;;
28547;SDS011;15750;49.600;8.746;2022-09-11T10:33:14;8.27;;;7.00;;
28547;SDS011;15750;49.600;8.746;2022-09-11T10:36:10;9.45;;;8.13;;
28547;SDS011;15750;49.600;8.746;2022-09-11T10:38:58;8.13;;;7.43;;
28547;SDS011;15750;49.600;8.746;2022-09-11T10:41:46;6.80;;;6.20;;
28547;SDS011;15750;49.600;8.746;2022-09-11T10:44:35;7.10;;;6.50;;
28547;SDS011;15750;49.600;8.746;2022-09-11T10:47:29;5.78;;;5.28;;
28547;SDS011;15750;49.600;8.746;2022-09-11T10:50:19;5.97;;;5.47;;
28547;SDS011;15750;49.600;8.746;2022-09-11T10:53:13;6.03;;;5.53;;
28547;SDS011;15750;49.600;8.746;2022-09-11T10:56:06;6.13;;;5.63;;
28547;SDS011;15750;49.600;8.746;2022-09-11T10:58:56;6.35;;;5.72;;
28547;SDS011;15750;49.600;8.746;2022-09-11T11:01:49;6.60;;;6.07;;
28547;SDS011;15750;49.600;8.746;2022-09-11T11:04:39;6.20;;;5.70;;
28547;SDS011;15750;49.600;8.746;2022-09-11T11:07:40;5.72;;;5.25;;
28547;SDS011;15750;49.600;8.746;2022-09-11T11:10:56;6.50;;;5.90;;
28547;SDS011;15750;49.600;8.746;2022-09-11T11:14:12;6.53;;;5.97;;
28547;SDS011;15750;49.600;8.746;2022-09-11T11:17:34;6.63;;;6.13;;
28547;SDS011;15750;49.600;8.746;2022-09-11T11:20:31;8.65;;;7.95;;
28547;SDS011;15750;49.600;8.746;2022-09-11T11:23:32;7.68;;;7.03;;
28547;SDS011;15750;49.600;8.746;2022-09-11T11:26:35;6.47;;;5.97;;
28547;SDS011;15750;49.600;8.746;2022-09-11T11:29:38;6.88;;;6.28;;
28547;SDS011;15750;49.600;8.746;2022-09-11T11:32:42;7.07;;;6.35;;
28547;SDS011;15750;49.600;8.746;2022-09-11T11:35:55;6.63;;;6.13;;
28547;SDS011;15750;49.600;8.746;2022-09-11T11:38:49;7.70;;;7.00;;
28547;SDS011;15750;49.600;8.746;2022-09-11T11:41:44;7.38;;;6.68;;
28547;SDS011;15750;49.600;8.746;2022-09-11T11:44:37;6.63;;;6.00;;
28547;SDS011;15750;49.600;8.746;2022-09-11T11:47:33;5.38;;;4.88;;
28547;SDS011;15750;49.600;8.746;2022-09-11T11:50:27;5.18;;;4.78;;
28547;SDS011;15750;49.600;8.746;2022-09-11T11:53:23;6.00;;;5.50;;
28547;SDS011;15750;49.600;8.746;2022-09-11T11:56:16;5.18;;;4.78;;
28547;SDS011;15750;49.600;8.746;2022-09-11T11:59:16;6.15;;;5.63;;
28547;SDS011;15750;49.600;8.746;2022-09-11T12:02:12;6.15;;;5.65;;
28547;SDS011;15750;49.600;8.746;2022-09-11T12:05:06;5.35;;;4.95;;
28547;SDS011;15750;49.600;8.746;2022-09-11T12:07:58;6.47;;;5.90;;
28547;SDS011;15750;49.600;8.746;2022-09-11T12:10:52;7.65;;;6.95;;
28547;SDS011;15750;49.600;8.746;2022-09-11T12:13:43;6.95;;;6.25;;
28547;SDS011;15750;49.600;8.746;2022-09-11T12:16:33;5.40;;;5.03;;
28547;SDS011;15750;49.600;8.746;2022-09-11T12:19:22;6.00;;;5.53;;
28547;SDS011;15750;49.600;8.746;2022-09-11T12:22:11;7.70;;;6.80;;
28547;SDS011;15750;49.600;8.746;2022-09-11T12:24:58;7.40;;;6.82;;
28547;SDS011;15750;49.600;8.746;2022-09-11T12:27:51;8.25;;;7.55;;
28547;SDS011;15750;49.600;8.746;2022-09-11T12:31:03;5.78;;;5.28;;
28547;SDS011;15750;49.600;8.746;2022-09-11T12:33:53;7.00;;;6.43;;
28547;SDS011;15750;49.600;8.746;2022-09-11T12:36:48;6.28;;;5.72;;
28547;SDS011;15750;49.600;8.746;2022-09-11T12:39:43;5.75;;;5.35;;
28547;SDS011;15750;49.600;8.746;2022-09-11T12:42:44;6.85;;;6.28;;
28547;SDS011;15750;49.600;8.746;2022-09-11T12:45:43;6.95;;;6.35;;
28547;SDS011;15750;49.600;8.746;2022-09-11T12:48:33;7.63;;;7.00;;
28547;SDS011;15750;49.600;8.746;2022-09-11T12:51:24;6.82;;;6.22;;
28547;SDS011;15750;49.600;8.746;2022-09-11T12:54:14;7.78;;;7.18;;
28547;SDS011;15750;49.600;8.746;2022-09-11T12:57:08;7.55;;;6.90;;
28547;SDS011;15750;49.600;8.746;2022-09-11T13:00:05;7.53;;;6.82;;
28547;SDS011;15750;49.600;8.746;2022-09-11T13:03:06;7.43;;;6.72;;
28547;SDS011;15750;49.600;8.746;2022-09-11T13:06:04;7.10;;;6.18;;
28547;SDS011;15750;49.600;8.746;2022-09-11T13:08:55;5.00;;;4.60;;
28547;SDS011;15750;49.600;8.746;2022-09-11T13:11:45;5.60;;;5.15;;
28547;SDS011;15750;49.600;8.746;2022-09-11T13:14:49;7.43;;;6.80;;
28547;SDS011;15750;49.600;8.746;2022-09-11T13:17:44;5.57;;;5.07;;
28547;SDS011;15750;49.600;8.746;2022-09-11T13:20:34;5.43;;;5.03;;
28547;SDS011;15750;49.600;8.746;2022-09-11T13:23:22;4.88;;;4.53;;
28547;SDS011;15750;49.600;8.746;2022-09-11T13:26:11;6.28;;;5.78;;
28547;SDS011;15750;49.600;8.746;2022-09-11T13:29:09;5.70;;;5.22;;
28547;SDS011;15750;49.600;8.746;2022-09-11T13:31:59;5.75;;;5.28;;
28547;SDS011;15750;49.600;8.746;2022-09-11T13:34:57;7.18;;;5.93;;
28547;SDS011;15750;49.600;8.746;2022-09-11T13:37:51;5.70;;;5.15;;
28547;SDS011;15750;49.600;8.746;2022-09-11T13:40:43;6.43;;;5.93;;
28547;SDS011;15750;49.600;8.746;2022-09-11T13:43:34;8.40;;;5.28;;
28547;SDS011;15750;49.600;8.746;2022-09-11T13:46:25;5.95;;;5.45;;
28547;SDS011;15750;49.600;8.746;2022-09-11T13:49:21;6.78;;;6.28;;
28547;SDS011;15750;49.600;8.746;2022-09-11T13:52:18;6.90;;;6.28;;
28547;SDS011;15750;49.600;8.746;2022-09-11T13:55:08;6.07;;;5.55;;
28547;SDS011;15750;49.600;8.746;2022-09-11T13:57:57;5.55;;;5.07;;
28547;SDS011;15750;49.600;8.746;2022-09-11T14:00:46;6.18;;;5.43;;
28547;SDS011;15750;49.600;8.746;2022-09-11T14:03:37;4.80;;;4.40;;
28547;SDS011;15750;49.600;8.746;2022-09-11T14:06:30;5.70;;;5.25;;
28547;SDS011;15750;49.600;8.746;2022-09-11T14:09:20;6.43;;;5.93;;
28547;SDS011;15750;49.600;8.746;2022-09-11T14:12:08;5.95;;;5.32;;
28547;SDS011;15750;49.600;8.746;2022-09-11T14:14:55;6.68;;;6.07;;
28547;SDS011;15750;49.600;8.746;2022-09-11T14:17:49;10.07;;;6.70;;
28547;SDS011;15750;49.600;8.746;2022-09-11T14:20:38;7.20;;;6.50;;
28547;SDS011;15750;49.600;8.746;2022-09-11T14:23:28;6.25;;;5.75;;
28547;SDS011;15750;49.600;8.746;2022-09-11T14:26:17;6.20;;;5.60;;
28547;SDS011;15750;49.600;8.746;2022-09-11T14:29:23;6.38;;;5.80;;
28547;SDS011;15750;49.600;8.746;2022-09-11T14:32:27;6.28;;;5.68;;
28547;SDS011;15750;49.600;8.746;2022-09-11T14:35:17;6.10;;;5.60;;
28547;SDS011;15750;49.600;8.746;2022-09-11T14:38:04;5.60;;;5.20;;
28547;SDS011;15750;49.600;8.746;2022-09-11T14:40:53;4.82;;;4.43;;
28547;SDS011;15750;49.600;8.746;2022-09-11T14:43:46;5.05;;;4.65;;
28547;SDS011;15750;49.600;8.746;2022-09-11T14:46:33;6.55;;;5.18;;
28547;SDS011;15750;49.600;8.746;2022-09-11T14:49:21;4.68;;;4.35;;
28547;SDS011;15750;49.600;8.746;2022-09-11T14:52:09;4.97;;;4.47;;
28547;SDS011;15750;49.600;8.746;2022-09-11T14:55:00;5.80;;;5.40;;
28547;SDS011;15750;49.600;8.746;2022-09-11T14:57:47;5.07;;;4.68;;
28547;SDS011;15750;49.600;8.746;2022-09-11T15:00:35;5.47;;;5.05;;
28547;SDS011;15750;49.600;8.746;2022-09-11T15:03:23;5.53;;;5.10;;
28547;SDS011;15750;49.600;8.746;2022-09-11T15:06:12;4.63;;;4.32;;
28547;SDS011;15750;49.600;8.746;2022-09-11T15:09:04;4.97;;;4.57;;
28547;SDS011;15750;49.600;8.746;2022-09-11T15:11:51;4.38;;;4.07;;
28547;SDS011;15750;49.600;8.746;2022-09-11T15:14:39;3.85;;;3.55;;
28547;SDS011;15750;49.600;8.746;2022-09-11T15:17:42;4.43;;;4.13;;
28547;SDS011;15750;49.600;8.746;2022-09-11T15:20:30;4.22;;;3.80;;
28547;SDS011;15750;49.600;8.746;2022-09-11T15:23:17;4.40;;;4.10;;
28547;SDS011;15750;49.600;8.746;2022-09-11T15:26:04;4.60;;;4.07;;
28547;SDS011;15750;49.600;8.746;2022-09-11T15:28:52;4.43;;;4.05;;
28547;SDS011;15750;49.600;8.746;2022-09-11T15:31:39;4.50;;;4.18;;
28547;SDS011;15750;49.600;8.746;2022-09-11T15:34:29;4.88;;;4.47;;
28547;SDS011;15750;49.600;8.746;2022-09-11T15:37:21;5.28;;;4.88;;
28547;SDS011;15750;49.600;8.746;2022-09-11T15:40:09;6.85;;;4.00;;
28547;SDS011;15750;49.600;8.746;2022-09-11T15:42:57;4.72;;;4.32;;
28547;SDS011;15750;49.600;8.746;2022-09-11T15:45:44;4.78;;;4.43;;
28547;SDS011;15750;49.600;8.746;2022-09-11T15:48:31;4.88;;;4.50;;
28547;SDS011;15750;49.600;8.746;2022-09-11T15:51:20;4.38;;;4.03;;
28547;SDS011;15750;49.600;8.746;2022-09-11T15:54:08;5.35;;;4.30;;
28547;SDS011;15750;49.600;8.746;2022-09-11T15:56:57;4.68;;;4.28;;
28547;SDS011;15750;49.600;8.746;2022-09-11T15:59:44;4.18;;;3.88;;
28547;SDS011;15750;49.600;8.746;2022-09-11T16:02:32;4.05;;;3.72;;
28547;SDS011;15750;49.600;8.746;2022-09-11T16:05:19;4.43;;;4.03;;
28547;SDS011;15750;49.600;8.746;2022-09-11T16:08:08;4.18;;;3.88;;
28547;SDS011;15750;49.600;8.746;2022-09-11T16:10:57;4.13;;;3.83;;
28547;SDS011;15750;49.600;8.746;2022-09-11T16:13:49;3.97;;;3.67;;
28547;SDS011;15750;49.600;8.746;2022-09-11T16:16:37;3.95;;;3.65;;
28547;SDS011;15750;49.600;8.746;2022-09-11T16:19:25;4.10;;;3.80;;
28547;SDS011;15750;49.600;8.746;2022-09-11T16:22:13;4.45;;;4.15;;
28547;SDS011;15750;49.600;8.746;2022-09-11T16:25:02;3.80;;;3.50;;
28547;SDS011;15750;49.600;8.746;2022-09-11T16:27:50;3.70;;;3.40;;
28547;SDS011;15750;49.600;8.746;2022-09-11T16:30:38;3.90;;;3.60;;
28547;SDS011;15750;49.600;8.746;2022-09-11T16:33:30;3.95;;;3.70;;
28547;SDS011;15750;49.600;8.746;2022-09-11T16:36:19;3.75;;;3.45;;
28547;SDS011;15750;49.600;8.746;2022-09-11T16:39:08;3.55;;;3.25;;
28547;SDS011;15750;49.600;8.746;2022-09-11T16:41:58;4.30;;;4.00;;
28547;SDS011;15750;49.600;8.746;2022-09-11T16:44:46;3.75;;;3.45;;
28547;SDS011;15750;49.600;8.746;2022-09-11T16:47:34;3.90;;;3.60;;
28547;SDS011;15750;49.600;8.746;2022-09-11T16:50:22;4.28;;;3.97;;
28547;SDS011;15750;49.600;8.746;2022-09-11T16:53:09;4.20;;;3.90;;
28547;SDS011;15750;49.600;8.746;2022-09-11T16:55:58;4.43;;;3.95;;
28547;SDS011;15750;49.600;8.746;2022-09-11T16:58:50;3.90;;;3.45;;
28547;SDS011;15750;49.600;8.746;2022-09-11T17:01:38;4.20;;;3.90;;
28547;SDS011;15750;49.600;8.746;2022-09-11T17:04:25;6.65;;;3.53;;
28547;SDS011;15750;49.600;8.746;2022-09-11T17:07:13;5.05;;;4.10;;
28547;SDS011;15750;49.600;8.746;2022-09-11T17:10:00;4.60;;;4.20;;
28547;SDS011;15750;49.600;8.746;2022-09-11T17:12:48;4.00;;;3.70;;
28547;SDS011;15750;49.600;8.746;2022-09-11T17:15:36;3.75;;;3.45;;
28547;SDS011;15750;49.600;8.746;2022-09-11T17:18:24;4.20;;;3.90;;
28547;SDS011;15750;49.600;8.746;2022-09-11T17:21:11;4.03;;;3.63;;
28547;SDS011;15750;49.600;8.746;2022-09-11T17:23:59;3.78;;;3.47;;
28547;SDS011;15750;49.600;8.746;2022-09-11T17:26:47;4.20;;;3.90;;